Time;durP1;ratioP1;P1;durP2;ratioP2;P2;SDS_P1;SDS_P2;PMS_P1;PMS_P2;Temp;Humidity;BMP_temperature;BMP_pressure;BME280_temperature;BME280_humidity;BME280_pressure;Samples;Min_cycle;Max_cycle;Signal;HPM_P1;HPM_P2
2023/05/11 00:00:45;;;;;;;2.97;2.03;;;;;;;13.87;80.53;98482.97;5006897;28;102742;-76
2023/05/11 00:03:14;;;;;;;4.77;1.57;;;;;;;13.82;80.92;98494.97;5002308;28;103364;-76
2023/05/11 00:05:42;;;;;;;3.93;2.50;;;;;;;13.74;80.85;98492.16;5006963;28;109285;-76
2023/05/11 00:08:10;;;;;;;2.93;1.90;;;;;;;13.89;80.65;98485.50;5007370;28;102739;-76
2023/05/11 00:10:39;;;;;;;2.13;1.30;;;;;;;13.69;81.12;98483.78;5002829;28;102913;-76
2023/05/11 00:13:07;;;;;;;3.13;1.33;;;;;;;13.68;82.12;98480.28;4996629;28;109311;-76
2023/05/11 00:15:35;;;;;;;1.33;1.10;;;;;;;13.68;81.59;98487.38;4994563;28;103213;-75
2023/05/11 00:18:03;;;;;;;1.63;1.10;;;;;;;13.83;80.99;98480.72;4975005;28;102798;-74
2023/05/11 00:20:31;;;;;;;1.93;0.80;;;;;;;13.82;80.93;98474.56;5002254;28;102793;-76
2023/05/11 00:22:59;;;;;;;1.07;0.80;;;;;;;13.74;81.60;98476.22;4996590;28;103995;-76
2023/05/11 00:25:27;;;;;;;1.23;0.90;;;;;;;13.81;80.81;98477.38;4986784;28;103170;-76
2023/05/11 00:27:56;;;;;;;1.03;0.80;;;;;;;13.85;81.03;98481.44;5009984;28;102566;-76
2023/05/11 00:30:24;;;;;;;0.80;0.80;;;;;;;13.79;81.16;98479.31;4988780;28;102736;-75
2023/05/11 00:32:52;;;;;;;0.60;0.60;;;;;;;13.92;80.42;98478.09;5007593;28;103423;-76
2023/05/11 00:35:20;;;;;;;1.87;0.90;;;;;;;13.75;80.34;98475.28;5008370;28;103263;-76
2023/05/11 00:37:48;;;;;;;1.07;0.90;;;;;;;13.74;80.83;98476.22;4992725;28;103940;-76
2023/05/11 00:40:16;;;;;;;2.70;0.90;;;;;;;13.64;81.45;98475.38;5008206;28;103504;-76
2023/05/11 00:42:44;;;;;;;1.03;0.70;;;;;;;13.72;80.89;98467.56;4996800;28;103406;-75
2023/05/11 00:45:13;;;;;;;0.93;0.70;;;;;;;13.62;81.90;98475.50;5008824;28;103981;-76
2023/05/11 00:47:43;;;;;;;0.90;0.73;;;;;;;13.79;81.02;98474.00;4990648;28;102865;-76
2023/05/11 00:50:12;;;;;;;1.47;1.00;;;;;;;13.78;81.18;98469.69;5000532;28;103075;-76
2023/05/11 00:52:41;;;;;;;1.80;0.90;;;;;;;13.82;81.07;98465.78;4995621;28;103284;-76
2023/05/11 00:55:10;;;;;;;2.40;0.80;;;;;;;13.89;80.48;98472.22;4983173;28;111585;-76
2023/05/11 00:57:38;;;;;;;4.70;0.90;;;;;;;13.71;82.50;98479.16;4996866;28;102835;-76
2023/05/11 01:00:07;;;;;;;1.00;0.70;;;;;;;13.64;82.68;98475.38;5003471;28;102753;-76
2023/05/11 01:02:37;;;;;;;1.87;0.90;;;;;;;13.83;81.63;98475.44;4996444;28;103917;-75
2023/05/11 01:05:06;;;;;;;1.23;0.90;;;;;;;13.78;81.92;98472.34;4993593;28;106558;-76
2023/05/11 01:07:38;;;;;;;1.83;0.70;;;;;;;13.95;81.09;98471.66;4973689;28;102625;-76
2023/05/11 01:10:15;;;;;;;0.90;0.80;;;;;;;13.89;81.37;98470.38;4989222;28;103769;-76
2023/05/11 01:12:53;;;;;;;1.93;1.17;;;;;;;13.95;81.19;98476.97;5006295;28;108200;-77
2023/05/11 01:15:26;;;;;;;1.10;1.00;;;;;;;13.88;81.53;98476.69;4997567;28;103217;-76
2023/05/11 01:18:01;;;;;;;1.10;0.90;;;;;;;13.79;83.20;98479.31;5000918;28;104483;-77
2023/05/11 01:20:30;;;;;;;3.77;1.03;;;;;;;13.77;82.59;98478.63;4997496;28;105012;-77
2023/05/11 01:23:34;;;;;;;1.30;0.97;;;;;;;13.61;84.95;98470.34;5000773;28;104022;-76
2023/05/11 01:26:11;;;;;;;1.30;1.20;;;;;;;13.71;83.92;98469.38;5007503;28;103100;-77
2023/05/11 01:29:04;;;;;;;2.93;1.10;;;;;;;13.71;83.78;98473.84;5000334;28;102822;-77
2023/05/11 01:31:37;;;;;;;1.73;0.90;;;;;;;13.64;82.54;98470.06;5003479;28;102834;-77
2023/05/11 01:34:10;;;;;;;1.20;1.10;;;;;;;13.54;83.38;98469.19;4988406;28;103407;-76
2023/05/11 01:36:44;;;;;;;3.87;0.87;;;;;;;13.74;82.92;98465.63;4987384;28;104620;-77
2023/05/11 01:39:13;;;;;;;0.77;0.70;;;;;;;13.78;83.15;98462.53;4974297;28;107114;-77
2023/05/11 01:41:45;;;;;;;1.57;0.80;;;;;;;13.91;82.01;98462.31;5003541;28;102960;-77
2023/05/11 01:44:16;;;;;;;3.00;0.80;;;;;;;13.84;82.96;98455.84;4989976;28;107096;-76
2023/05/11 01:46:47;;;;;;;1.00;0.80;;;;;;;13.62;83.92;98462.22;4987309;28;103667;-77
2023/05/11 01:49:20;;;;;;;0.67;0.67;;;;;;;13.89;82.40;98464.25;5007533;28;102740;-76
2023/05/11 01:51:50;;;;;;;1.53;0.70;;;;;;;14.03;81.65;98461.22;5005446;28;103209;-76
2023/05/11 01:54:20;;;;;;;1.10;0.80;;;;;;;14.06;82.13;98466.25;4978984;28;106078;-76
2023/05/11 01:56:50;;;;;;;1.37;1.10;;;;;;;13.47;84.92;98460.09;4997428;28;104231;-76
2023/05/11 01:59:18;;;;;;;1.30;1.20;;;;;;;13.60;85.84;98463.34;4985230;28;102773;-76
2023/05/11 02:01:48;;;;;;;2.20;1.37;;;;;;;13.57;85.40;98463.59;4990734;28;102902;-76
2023/05/11 02:04:19;;;;;;;1.37;0.93;;;;;;;13.69;85.70;98459.88;4985191;28;103931;-76
2023/05/11 02:06:48;;;;;;;1.53;0.80;;;;;;;13.78;84.45;98462.53;4987553;28;107650;-76
2023/05/11 02:09:18;;;;;;;0.80;0.80;;;;;;;13.93;83.08;98460.34;4983229;28;102806;-76
2023/05/11 02:11:48;;;;;;;1.17;0.70;;;;;;;13.75;83.35;98469.97;4987406;28;103218;-76
2023/05/11 02:14:19;;;;;;;3.20;1.20;;;;;;;13.77;82.48;98465.34;4996321;28;103197;-76
2023/05/11 02:16:50;;;;;;;3.20;0.80;;;;;;;13.74;83.43;98465.63;5009544;28;103790;-75
2023/05/11 02:19:20;;;;;;;1.63;0.63;;;;;;;13.90;82.48;98471.22;4981111;28;102790;-76
2023/05/11 02:21:50;;;;;;;0.90;0.90;;;;;;;13.87;82.70;98471.50;4974583;28;102792;-75
2023/05/11 02:24:21;;;;;;;1.67;0.90;;;;;;;13.91;81.92;98472.91;5004404;28;109781;-76
2023/05/11 02:26:49;;;;;;;1.17;0.87;;;;;;;14.03;80.47;98479.81;5004142;28;107944;-76
2023/05/11 02:29:17;;;;;;;3.57;0.90;;;;;;;14.14;79.58;98474.34;4982485;28;103393;-76
2023/05/11 02:31:49;;;;;;;1.20;0.80;;;;;;;14.20;79.43;98471.16;4991930;28;102825;-76
2023/05/11 02:34:24;;;;;;;2.40;0.97;;;;;;;14.10;79.40;98467.63;4994585;28;105587;-75
2023/05/11 02:36:58;;;;;;;2.40;0.70;;;;;;;14.30;78.51;98463.16;4999924;28;112251;-76
2023/05/11 02:39:33;;;;;;;1.10;0.80;;;;;;;14.17;79.23;98470.59;4998991;28;102797;-76
2023/05/11 02:42:09;;;;;;;0.87;0.50;;;;;;;14.09;79.63;98465.13;4996152;28;102904;-76
2023/05/11 02:44:39;;;;;;;1.03;1.00;;;;;;;14.10;79.23;98464.97;4997070;28;103423;-76
2023/05/11 02:47:12;;;;;;;1.63;0.80;;;;;;;14.14;77.83;98463.75;4984945;28;103199;-77
2023/05/11 02:49:43;;;;;;;0.80;0.70;;;;;;;14.12;79.03;98468.31;4994966;28;103417;-76
2023/05/11 02:52:13;;;;;;;1.60;0.80;;;;;;;14.09;78.57;98470.44;4987085;28;102957;-76
2023/05/11 02:54:45;;;;;;;0.70;0.70;;;;;;;14.20;77.99;98465.84;4986944;28;103375;-76
2023/05/11 02:57:13;;;;;;;0.80;0.80;;;;;;;14.17;77.14;98466.13;4992152;28;103178;-75
2023/05/11 02:59:42;;;;;;;1.20;0.80;;;;;;;14.18;76.86;98469.59;4974920;28;102732;-76
2023/05/11 03:02:12;;;;;;;1.23;0.80;;;;;;;14.09;77.18;98459.81;4972947;28;102828;-76
2023/05/11 03:04:41;;;;;;;1.53;0.80;;;;;;;14.27;76.54;98456.31;4997998;28;103720;-76
2023/05/11 03:07:09;;;;;;;0.73;0.70;;;;;;;14.03;77.47;98460.38;4997905;28;114442;-76
2023/05/11 03:09:37;;;;;;;1.77;0.80;;;;;;;14.19;76.82;98455.34;5008490;28;102848;-76
2023/05/11 03:12:07;;;;;;;1.43;0.87;;;;;;;14.36;76.00;98454.69;4990447;28;102645;-76
2023/05/11 03:14:38;;;;;;;0.90;0.80;;;;;;;14.27;75.69;98458.97;4991941;28;103503;-76
2023/05/11 03:17:06;;;;;;;0.87;0.70;;;;;;;14.27;76.17;98452.81;4993132;28;103783;-76
2023/05/11 03:19:40;;;;;;;0.73;0.70;;;;;;;14.34;75.69;98448.66;5005234;28;102662;-76
2023/05/11 03:22:11;;;;;;;1.07;0.70;;;;;;;14.36;76.29;98460.84;4982352;28;102785;-76
2023/05/11 03:24:39;;;;;;;0.80;0.80;;;;;;;14.33;75.54;98454.94;5007181;28;103437;-75
2023/05/11 03:27:08;;;;;;;1.47;0.60;;;;;;;14.27;75.83;98452.81;4983323;28;105602;-76
2023/05/11 03:29:41;;;;;;;1.83;0.90;;;;;;;14.27;75.27;98448.34;4995605;28;103288;-76
2023/05/11 03:32:09;;;;;;;1.60;0.60;;;;;;;14.34;75.33;98448.66;5007108;28;102569;-76
2023/05/11 03:34:40;;;;;;;0.80;0.60;;;;;;;14.15;75.87;98446.78;4990984;28;111676;-76
2023/05/11 03:37:14;;;;;;;1.10;0.50;;;;;;;14.03;76.29;98453.25;4989797;28;103217;-76
2023/05/11 03:39:45;;;;;;;1.03;0.90;;;;;;;14.19;75.82;98445.56;4984704;28;102643;-77
2023/05/11 03:42:16;;;;;;;1.73;0.90;;;;;;;14.07;75.73;98451.97;5006056;28;103081;-77
2023/05/11 03:44:46;;;;;;;0.77;0.63;;;;;;;14.12;76.14;98455.03;4985335;28;103406;-78
2023/05/11 03:47:18;;;;;;;0.83;0.73;;;;;;;14.11;76.26;98452.53;4991223;28;103227;-76
2023/05/11 03:49:48;;;;;;;0.90;0.90;;;;;;;14.07;76.43;98451.97;4973781;28;104618;-76
2023/05/11 03:52:17;;;;;;;1.00;0.70;;;;;;;14.08;75.78;98450.16;4986696;28;102853;-76
2023/05/11 03:54:45;;;;;;;1.10;0.80;;;;;;;14.00;76.12;98450.84;4993772;28;103693;-76
2023/05/11 03:57:14;;;;;;;1.43;0.80;;;;;;;14.09;75.98;98450.00;4989128;28;103409;-77
2023/05/11 03:59:42;;;;;;;1.00;0.80;;;;;;;14.11;75.45;98445.41;4984238;28;102897;-80
2023/05/11 04:02:10;;;;;;;1.30;1.10;;;;;;;14.11;75.67;98440.09;4989023;28;103009;-80
2023/05/11 04:04:37;;;;;;;0.90;0.90;;;;;;;13.98;75.45;98446.66;5009125;28;103339;-80
2023/05/11 04:07:07;;;;;;;1.27;0.90;;;;;;;14.06;76.12;98445.00;4981967;28;103318;-80
2023/05/11 04:09:35;;;;;;;2.87;0.87;;;;;;;14.18;75.89;98443.88;4983987;28;102811;-76
2023/05/11 04:12:03;;;;;;;1.43;0.73;;;;;;;14.07;76.41;98437.84;5004040;28;102811;-77
2023/05/11 04:14:31;;;;;;;1.67;0.80;;;;;;;14.14;76.22;98439.81;4993214;28;104448;-76
2023/05/11 04:16:59;;;;;;;1.97;1.10;;;;;;;14.06;76.17;98442.34;4983526;28;105434;-71
2023/05/11 04:19:27;;;;;;;1.00;0.80;;;;;;;14.04;76.65;98436.31;5001827;28;103267;-72
2023/05/11 04:21:55;;;;;;;1.53;1.10;;;;;;;14.09;75.92;98444.69;5001377;28;102928;-70
2023/05/11 04:24:24;;;;;;;3.43;1.27;;;;;;;13.83;76.87;98441.75;4990992;28;103401;-70
2023/05/11 04:26:55;;;;;;;1.00;0.90;;;;;;;13.94;77.15;98440.78;4991267;28;103098;-69
2023/05/11 04:29:25;;;;;;;1.27;1.10;;;;;;;13.88;76.26;98442.16;5001534;28;102798;-71
2023/05/11 04:31:53;;;;;;;1.63;1.20;;;;;;;13.89;76.76;98440.38;4997282;28;104078;-70
2023/05/11 04:34:22;;;;;;;1.13;0.80;;;;;;;14.14;76.16;98439.81;4977659;28;104348;-69
2023/05/11 04:36:52;;;;;;;0.90;0.90;;;;;;;13.95;76.88;98442.44;4982270;28;103137;-70
2023/05/11 04:39:20;;;;;;;1.50;1.10;;;;;;;14.18;76.04;98441.22;4985512;28;103509;-70
2023/05/11 04:41:50;;;;;;;2.00;0.90;;;;;;;14.16;75.43;98437.88;4989898;28;104325;-70
2023/05/11 04:44:17;;;;;;;1.03;0.97;;;;;;;13.89;76.63;98449.16;4993054;28;103555;-70
2023/05/11 04:46:48;;;;;;;1.23;0.90;;;;;;;14.13;75.45;98443.44;4984990;28;112267;-70
2023/05/11 04:49:16;;;;;;;1.63;1.40;;;;;;;13.97;75.54;98445.81;4984217;28;102813;-70
2023/05/11 04:51:44;;;;;;;1.70;1.10;;;;;;;13.71;77.10;98450.81;4966792;28;106584;-70
2023/05/11 04:54:12;;;;;;;1.50;1.37;;;;;;;13.96;76.21;98441.47;4999873;28;103058;-69
2023/05/11 04:56:40;;;;;;;3.43;2.00;;;;;;;13.85;76.19;98449.56;4979978;28;103177;-69
2023/05/11 04:59:10;;;;;;;4.70;1.70;;;;;;;13.92;76.15;98448.88;4987550;28;102811;-69
2023/05/11 05:01:38;;;;;;;1.10;1.00;;;;;;;14.10;75.92;98449.03;5002646;28;103969;-70
2023/05/11 05:04:06;;;;;;;1.20;1.10;;;;;;;14.05;76.32;98453.94;4990089;28;103338;-69
2023/05/11 05:06:37;;;;;;;1.87;1.20;;;;;;;13.92;75.97;98453.38;4990140;28;103048;-69
2023/05/11 05:09:05;;;;;;;2.80;1.20;;;;;;;14.14;76.11;98453.09;5001469;28;102976;-70
2023/05/11 05:11:34;;;;;;;1.93;1.10;;;;;;;14.22;75.48;98449.75;4965171;28;103292;-69
2023/05/11 05:14:02;;;;;;;1.23;1.10;;;;;;;14.13;75.86;98451.41;4991207;28;103173;-70
2023/05/11 05:16:31;;;;;;;1.60;1.23;;;;;;;14.17;75.40;98452.84;5006787;28;104207;-69
2023/05/11 05:18:59;;;;;;;1.20;1.10;;;;;;;14.18;74.56;98459.81;4969060;28;103325;-69
2023/05/11 05:21:28;;;;;;;2.60;1.20;;;;;;;14.22;75.02;98453.25;4990398;28;102865;-73
2023/05/11 05:23:56;;;;;;;1.33;1.00;;;;;;;14.13;75.85;98459.38;4971939;28;107675;-73
2023/05/11 05:26:24;;;;;;;1.40;1.20;;;;;;;14.14;75.42;98462.88;5010483;28;108924;-73
2023/05/11 05:28:53;;;;;;;2.40;1.23;;;;;;;14.08;75.64;98458.97;4977613;28;102672;-69
2023/05/11 05:31:21;;;;;;;1.10;1.00;;;;;;;14.12;75.56;98460.34;5005689;28;102703;-69
2023/05/11 05:33:50;;;;;;;2.17;1.00;;;;;;;14.25;75.50;98458.28;4978681;28;104004;-69
2023/05/11 05:36:18;;;;;;;1.40;1.20;;;;;;;14.03;75.89;98461.22;5003347;28;108450;-69
2023/05/11 05:38:47;;;;;;;1.77;1.07;;;;;;;14.29;75.93;98456.16;4993725;28;102906;-69
2023/05/11 05:41:16;;;;;;;3.17;1.20;;;;;;;14.26;75.82;98467.09;5006131;28;103158;-70
2023/05/11 05:43:45;;;;;;;1.47;1.17;;;;;;;14.45;75.02;98457.34;4993982;28;103548;-69
2023/05/11 05:46:14;;;;;;;1.27;1.17;;;;;;;14.29;75.85;98459.66;4990306;28;103201;-69
2023/05/11 05:48:42;;;;;;;2.03;1.07;;;;;;;14.45;75.72;98467.97;4999565;28;102804;-69
2023/05/11 05:51:11;;;;;;;2.20;1.57;;;;;;;14.31;75.39;98476.34;5001218;28;103026;-70
2023/05/11 05:53:39;;;;;;;1.30;1.20;;;;;;;14.07;78.26;98478.53;4991178;28;103460;-71
2023/05/11 05:56:07;;;;;;;2.50;1.30;;;;;;;14.10;75.83;98477.41;4981587;28;104396;-70
2023/05/11 05:58:35;;;;;;;1.67;1.10;;;;;;;14.39;75.08;98475.66;4975482;28;102643;-70
2023/05/11 06:01:04;;;;;;;1.37;1.17;;;;;;;14.46;74.59;98472.28;5001053;28;104102;-71
2023/05/11 06:03:32;;;;;;;1.00;0.90;;;;;;;14.37;75.21;98470.47;5006718;28;103954;-71
2023/05/11 06:06:01;;;;;;;3.27;1.80;;;;;;;14.48;75.08;98472.97;5002102;28;103422;-69
2023/05/11 06:08:33;;;;;;;2.07;1.60;;;;;;;14.40;74.90;98475.50;4991567;28;102707;-70
2023/05/11 06:11:01;;;;;;;1.60;1.50;;;;;;;14.37;75.89;98483.75;5005520;28;103344;-69
2023/05/11 06:13:29;;;;;;;2.47;1.20;;;;;;;14.52;75.06;98473.53;5005075;28;103504;-72
2023/05/11 06:15:59;;;;;;;1.93;1.13;;;;;;;14.59;74.55;98474.69;4993479;28;103670;-69
2023/05/11 06:18:33;;;;;;;2.50;1.30;;;;;;;14.34;76.31;98481.38;4986076;28;103105;-69
2023/05/11 06:21:03;;;;;;;3.17;1.27;;;;;;;14.29;76.06;98483.59;5005263;28;102770;-68
2023/05/11 06:23:33;;;;;;;1.87;1.60;;;;;;;14.28;76.37;98481.91;5000969;28;103482;-70
2023/05/11 06:26:02;;;;;;;1.30;1.07;;;;;;;14.54;75.77;98478.75;4977776;28;106086;-69
2023/05/11 06:28:32;;;;;;;1.17;1.10;;;;;;;14.19;77.37;98482.75;4999363;28;103269;-69
2023/05/11 06:31:04;;;;;;;1.17;1.07;;;;;;;14.07;76.09;98483.00;4983283;28;102803;-70
2023/05/11 06:33:35;;;;;;;1.27;1.10;;;;;;;14.46;76.21;98476.75;4993195;28;103280;-67
2023/05/11 06:36:08;;;;;;;1.33;1.00;;;;;;;14.68;75.35;98479.13;4997796;27;103331;-69
2023/05/11 06:38:37;;;;;;;4.53;1.70;;;;;;;14.57;75.80;98476.63;4994605;28;102914;-69
2023/05/11 06:41:10;;;;;;;1.43;1.33;;;;;;;14.74;75.41;98483.88;4994004;28;102697;-70
2023/05/11 06:43:38;;;;;;;1.50;1.40;;;;;;;14.45;75.92;98483.91;4986572;28;103375;-69
2023/05/11 06:46:16;;;;;;;1.73;1.63;;;;;;;14.27;77.31;98476.72;4988207;28;103820;-69
2023/05/11 06:48:44;;;;;;;1.40;1.13;;;;;;;14.24;78.77;98482.31;4990962;28;102783;-69
2023/05/11 06:51:13;;;;;;;2.20;1.93;;;;;;;14.56;76.95;98479.44;4981454;28;103033;-68
2023/05/11 06:53:44;;;;;;;4.60;4.20;;;;;;;14.06;79.50;98484.84;4995055;28;103403;-68
2023/05/11 06:56:11;;;;;;;2.57;1.50;;;;;;;14.26;78.18;98481.19;4997546;28;103135;-73
2023/05/11 06:58:41;;;;;;;3.53;1.57;;;;;;;14.29;77.60;98474.75;4990119;28;102798;-70
2023/05/11 07:01:10;;;;;;;1.43;1.10;;;;;;;14.68;77.74;98478.31;5002683;28;102973;-72
2023/05/11 07:03:40;;;;;;;1.60;1.10;;;;;;;14.87;76.61;98483.59;4991132;28;104503;-69
2023/05/11 07:06:10;;;;;;;1.60;1.00;;;;;;;14.95;75.79;98487.22;4979349;28;103113;-71
2023/05/11 07:08:38;;;;;;;1.83;1.60;;;;;;;14.57;77.58;98478.47;5003015;28;103447;-73
2023/05/11 07:11:07;;;;;;;2.33;1.40;;;;;;;14.02;79.78;98486.06;5001178;28;102770;-72
2023/05/11 07:13:35;;;;;;;2.40;1.63;;;;;;;14.46;79.52;98480.25;5005209;28;103298;-69
2023/05/11 07:16:03;;;;;;;3.20;1.70;;;;;;;14.75;77.94;98485.56;5001410;28;103063;-69
2023/05/11 07:18:31;;;;;;;1.30;1.20;;;;;;;14.68;77.93;98496.91;5000005;28;103046;-70
2023/05/11 07:21:02;;;;;;;1.57;1.40;;;;;;;14.67;77.70;98493.41;4998895;28;102602;-69
2023/05/11 07:23:30;;;;;;;3.00;2.07;;;;;;;14.43;78.13;98492.97;5000196;28;103380;-70
2023/05/11 07:25:58;;;;;;;1.93;1.40;;;;;;;14.39;78.44;98496.91;4966061;28;103507;-72
2023/05/11 07:28:29;;;;;;;1.63;1.47;;;;;;;14.43;79.44;98500.97;5005800;28;102744;-68
2023/05/11 07:30:57;;;;;;;2.00;1.57;;;;;;;14.34;81.28;98501.81;4994840;28;103371;-67
2023/05/11 07:33:28;;;;;;;1.50;1.37;;;;;;;14.55;81.25;98496.34;5010484;28;103223;-69
2023/05/11 07:35:56;;;;;;;2.03;1.87;;;;;;;14.35;81.32;98496.34;4982569;28;103118;-67
2023/05/11 07:38:25;;;;;;;2.67;1.93;;;;;;;14.18;83.17;98497.00;4985327;28;102640;-68
2023/05/11 07:40:53;;;;;;;4.93;2.00;;;;;;;13.86;81.44;98496.41;4997757;28;102812;-68
2023/05/11 07:43:21;;;;;;;1.83;1.73;;;;;;;13.97;83.62;98504.25;5001918;28;103304;-69
2023/05/11 07:45:54;;;;;;;1.83;1.73;;;;;;;14.43;83.45;98501.81;5003046;28;103151;-69
2023/05/11 07:48:22;;;;;;;2.10;1.57;;;;;;;14.29;83.36;98496.88;4998146;27;102716;-67
2023/05/11 07:50:50;;;;;;;3.70;1.70;;;;;;;14.64;81.87;98495.50;5001602;28;103169;-69
2023/05/11 07:53:19;;;;;;;2.30;2.10;;;;;;;14.10;82.93;98504.81;4987529;28;103878;-68
2023/05/11 07:55:47;;;;;;;2.90;1.80;;;;;;;13.74;83.29;98508.94;4999738;28;107683;-69
2023/05/11 07:58:14;;;;;;;2.90;2.10;;;;;;;13.69;86.02;98505.84;4998605;28;102917;-70
2023/05/11 08:00:42;;;;;;;3.07;2.03;;;;;;;13.84;84.64;98495.66;4999188;28;103130;-70
2023/05/11 08:03:11;;;;;;;2.20;2.00;;;;;;;14.14;85.17;98505.41;5001118;28;109289;-70
2023/05/11 08:05:40;;;;;;;3.23;2.23;;;;;;;14.27;85.75;98496.19;4993993;28;104031;-69
2023/05/11 08:08:07;;;;;;;3.80;2.13;;;;;;;14.52;82.07;98495.66;4980631;28;102889;-69
2023/05/11 08:10:37;;;;;;;2.57;1.77;;;;;;;14.89;82.14;98492.25;4996098;28;103320;-71
2023/05/11 08:13:06;;;;;;;3.03;1.93;;;;;;;14.99;82.52;98493.06;4989460;28;103287;-71
2023/05/11 08:15:34;;;;;;;3.13;2.07;;;;;;;14.90;83.25;98500.13;4998528;28;103399;-70
2023/05/11 08:18:02;;;;;;;2.40;2.20;;;;;;;15.14;82.20;98496.97;4999194;28;102656;-70
2023/05/11 08:20:31;;;;;;;2.40;2.20;;;;;;;15.42;81.07;98495.19;5002909;28;103903;-69
2023/05/11 08:22:59;;;;;;;2.53;2.30;;;;;;;15.30;80.79;98497.19;4994842;28;103158;-69
2023/05/11 08:25:27;;;;;;;3.30;2.97;;;;;;;14.57;81.42;98505.03;4981990;28;104787;-70
2023/05/11 08:27:55;;;;;;;4.07;2.80;;;;;;;15.05;82.42;98497.81;4999177;28;103956;-72
2023/05/11 08:30:23;;;;;;;3.30;2.63;;;;;;;15.24;81.87;98497.75;4986455;28;103055;-71
2023/05/11 08:32:51;;;;;;;3.53;2.90;;;;;;;15.24;80.36;98496.94;4980682;28;105745;-71
2023/05/11 08:35:26;;;;;;;2.53;2.33;;;;;;;14.92;82.56;98492.81;4984929;28;106376;-72
2023/05/11 08:37:55;;;;;;;3.57;3.00;;;;;;;14.83;81.04;98495.47;4997095;28;102959;-73
2023/05/11 08:40:26;;;;;;;5.37;2.63;;;;;;;15.12;80.40;98493.63;4985556;28;103570;-72
2023/05/11 08:42:59;;;;;;;3.60;2.90;;;;;;;14.41;81.50;98498.47;4991517;28;110021;-70
2023/05/11 08:45:32;;;;;;;4.23;2.60;;;;;;;14.85;84.15;98501.53;4985078;28;103238;-71
2023/05/11 08:48:00;;;;;;;3.13;2.40;;;;;;;15.33;81.29;98501.38;4979604;28;102679;-71
2023/05/11 08:50:28;;;;;;;3.27;2.30;;;;;;;15.77;80.97;98499.84;4996935;28;102645;-70
2023/05/11 08:52:57;;;;;;;2.00;1.90;;;;;;;15.96;80.69;98499.72;4973676;28;106329;-70
2023/05/11 08:55:26;;;;;;;4.60;2.97;;;;;;;15.74;79.39;98494.81;4988262;28;104726;-71
2023/05/11 08:57:56;;;;;;;3.47;3.23;;;;;;;15.90;79.97;98503.00;4971867;28;104040;-70
2023/05/11 09:00:24;;;;;;;2.77;2.17;;;;;;;15.88;78.38;98502.31;5007501;28;102756;-69
2023/05/11 09:02:53;;;;;;;3.00;2.60;;;;;;;15.77;79.79;98497.19;5003893;28;103302;-70
2023/05/11 09:05:21;;;;;;;3.40;2.60;;;;;;;15.65;80.59;98502.72;4996660;28;103061;-71
2023/05/11 09:07:53;;;;;;;2.60;2.40;;;;;;;15.66;82.61;98506.22;5002066;28;102627;-70
2023/05/11 09:10:22;;;;;;;2.70;2.47;;;;;;;15.88;81.86;98503.16;5003786;28;103045;-71
2023/05/11 09:12:50;;;;;;;5.03;2.30;;;;;;;15.83;78.49;98504.59;4994609;28;103549;-71
2023/05/11 09:15:18;;;;;;;2.60;2.40;;;;;;;15.31;80.70;98506.88;4998408;28;103055;-71
2023/05/11 09:17:48;;;;;;;2.90;2.70;;;;;;;15.10;79.49;98500.91;5006869;28;102848;-70
2023/05/11 09:20:26;;;;;;;2.53;2.10;;;;;;;15.53;78.19;98503.88;4991152;28;104049;-71
2023/05/11 09:22:55;;;;;;;4.03;2.33;;;;;;;15.65;79.37;98502.72;5006589;28;103464;-69
2023/05/11 09:25:26;;;;;;;7.13;2.70;;;;;;;15.19;82.95;98497.38;5007196;28;113324;-69
2023/05/11 09:27:54;;;;;;;2.90;2.70;;;;;;;14.71;82.76;98507.28;5009462;28;103007;-69
2023/05/11 09:30:23;;;;;;;2.63;2.43;;;;;;;14.58;83.22;98499.56;5003191;28;102833;-69
2023/05/11 09:32:52;;;;;;;3.00;2.40;;;;;;;15.15;83.41;98501.31;5012198;28;103550;-71
2023/05/11 09:35:25;;;;;;;3.00;2.23;;;;;;;15.21;82.76;98498.09;4996355;28;104301;-70
2023/05/11 09:38:01;;;;;;;2.10;2.00;;;;;;;15.76;81.25;98501.66;4967056;28;102852;-70
2023/05/11 09:40:31;;;;;;;2.70;2.50;;;;;;;15.54;80.77;98504.72;4993313;28;103593;-70
2023/05/11 09:43:02;;;;;;;3.10;2.90;;;;;;;14.62;81.67;98502.78;5007903;28;103323;-70
2023/05/11 09:45:38;;;;;;;3.30;2.87;;;;;;;14.82;82.87;98501.81;4988757;28;103524;-70
2023/05/11 09:48:06;;;;;;;4.70;2.23;;;;;;;14.57;84.62;98494.41;4993892;28;106546;-70
2023/05/11 09:50:36;;;;;;;4.77;2.80;;;;;;;14.32;84.00;98499.28;4997509;28;103785;-70
2023/05/11 09:53:04;;;;;;;2.63;2.30;;;;;;;15.18;82.02;98498.38;4964260;28;106246;-70
2023/05/11 09:55:33;;;;;;;3.93;2.93;;;;;;;15.32;80.48;98499.72;4980857;28;104023;-70
2023/05/11 09:58:01;;;;;;;3.43;3.13;;;;;;;15.37;79.69;98500.97;4977206;28;103493;-69
2023/05/11 10:00:29;;;;;;;5.17;3.90;;;;;;;14.12;84.36;98502.03;4990498;28;106638;-70
2023/05/11 10:03:01;;;;;;;3.83;3.53;;;;;;;14.92;82.53;98505.28;5007328;28;109186;-69
2023/05/11 10:05:31;;;;;;;7.23;3.50;;;;;;;14.95;81.31;98503.19;5008613;28;103037;-69
2023/05/11 10:08:01;;;;;;;3.90;3.50;;;;;;;15.36;83.31;98501.94;5006236;28;102638;-69
2023/05/11 10:10:30;;;;;;;3.60;3.30;;;;;;;15.34;81.32;98498.59;5013282;28;102966;-70
2023/05/11 10:13:05;;;;;;;2.90;2.20;;;;;;;15.47;84.35;98499.13;4992420;28;103859;-71
2023/05/11 10:15:37;;;;;;;5.93;3.57;;;;;;;15.19;80.39;98500.03;4986516;28;104242;-71
2023/05/11 10:18:06;;;;;;;5.33;3.00;;;;;;;14.73;83.59;98502.66;4998958;28;102713;-71
2023/05/11 10:20:34;;;;;;;2.77;2.57;;;;;;;15.32;81.62;98500.56;4999096;28;104172;-70
2023/05/11 10:23:03;;;;;;;2.83;2.20;;;;;;;14.59;83.17;98501.25;5002094;28;111186;-70
2023/05/11 10:25:35;;;;;;;2.83;2.50;;;;;;;14.29;83.28;98504.84;4990123;28;111109;-69
2023/05/11 10:28:10;;;;;;;3.37;2.53;;;;;;;14.01;84.33;98504.81;4974826;28;106660;-69
2023/05/11 10:30:38;;;;;;;2.67;2.47;;;;;;;14.55;86.00;98504.31;4998428;28;102952;-69
2023/05/11 10:33:10;;;;;;;2.70;2.50;;;;;;;14.00;84.86;98495.16;5006218;28;110466;-69
2023/05/11 10:35:40;;;;;;;4.57;2.87;;;;;;;13.92;86.81;98498.50;5009728;28;102668;-67
2023/05/11 10:38:08;;;;;;;3.30;2.50;;;;;;;14.25;85.12;98498.13;5002067;28;102726;-68
2023/05/11 10:40:40;;;;;;;2.73;2.53;;;;;;;14.52;84.71;98490.34;5001791;28;102682;-68
2023/05/11 10:43:37;;;;;;;2.43;2.23;;;;;;;14.54;84.43;98500.00;5001985;28;113754;-67
2023/05/11 10:46:21;;;;;;;2.93;2.33;;;;;;;14.27;83.86;98496.19;5005196;28;104709;-79
2023/05/11 10:49:09;;;;;;;3.80;2.50;;;;;;;14.57;83.40;98491.75;4988543;28;103117;-76
2023/05/11 10:52:07;;;;;;;3.80;2.53;;;;;;;15.08;80.96;98486.91;4997060;28;102869;-75
2023/05/11 10:54:52;;;;;;;3.47;2.63;;;;;;;15.50;80.66;98485.53;4995492;28;103220;-77
2023/05/11 10:57:36;;;;;;;3.23;2.60;;;;;;;15.27;79.18;98480.69;5007431;28;103217;-76
2023/05/11 11:00:42;;;;;;;2.13;2.03;;;;;;;14.91;83.69;98479.66;5006881;28;102715;-78
2023/05/11 11:03:12;;;;;;;3.07;2.20;;;;;;;14.80;83.94;98482.47;4993962;28;102843;-78
2023/05/11 11:05:42;;;;;;;2.73;2.20;;;;;;;14.83;81.39;98482.19;5015122;28;110098;-77
2023/05/11 11:08:10;;;;;;;3.43;2.00;;;;;;;15.40;80.56;98482.03;5006096;28;105278;-79
2023/05/11 11:10:42;;;;;;;3.13;1.90;;;;;;;15.46;79.47;98481.50;5008986;28;102600;-81
2023/05/11 11:13:12;;;;;;;2.17;1.80;;;;;;;15.71;77.75;98479.97;5007772;28;102734;-79
2023/05/11 11:16:10;;;;;;;2.10;1.90;;;;;;;15.19;78.41;98476.06;5006347;28;111462;-78
2023/05/11 11:18:42;;;;;;;3.93;2.40;;;;;;;14.88;81.49;98479.94;5003746;28;103701;-79
2023/05/11 11:21:14;;;;;;;3.10;1.90;;;;;;;15.09;78.55;98475.28;5011526;28;102628;-79
2023/05/11 11:23:44;;;;;;;2.63;2.23;;;;;;;15.41;80.96;98478.38;4999569;28;102837;-81
2023/05/11 11:26:14;;;;;;;3.17;2.20;;;;;;;15.18;80.49;98479.75;5001174;28;106536;-67
2023/05/11 11:29:08;;;;;;;2.47;2.27;;;;;;;15.25;81.05;98478.16;4994417;28;108866;-68
2023/05/11 11:31:38;;;;;;;2.90;2.50;;;;;;;14.76;82.60;98481.94;5002087;28;103006;-70
2023/05/11 11:34:38;;;;;;;2.67;2.47;;;;;;;15.44;78.71;98472.75;5003160;28;102832;-73
2023/05/11 11:37:08;;;;;;;3.63;2.70;;;;;;;15.27;78.97;98470.06;5005232;28;103361;-74
2023/05/11 11:39:52;;;;;;;2.20;2.00;;;;;;;15.55;77.63;98474.44;4989950;28;103039;-71